createdAt,value
2023-05-17T00:05:06.770Z,9.8
2023-05-17T00:10:37.800Z,9.7
2023-05-17T00:16:10.279Z,9.8
2023-05-17T00:21:44.496Z,9.7
2023-05-17T00:27:19.100Z,9.7
2023-05-17T00:32:53.359Z,9.9
2023-05-17T00:38:26.842Z,9.7
2023-05-17T00:44:07.722Z,9.8
2023-05-17T00:49:27.532Z,9.9
2023-05-17T00:55:23.784Z,9.7
2023-05-17T01:00:44.255Z,9.8
2023-05-17T01:06:32.924Z,9.7
2023-05-17T01:12:07.035Z,9.7
2023-05-17T01:17:33.556Z,9.7
2023-05-17T01:22:51.948Z,9.7
2023-05-17T01:28:44.412Z,9.7
2023-05-17T01:34:18.247Z,9.5
2023-05-17T01:39:31.141Z,9.5
2023-05-17T01:45:22.282Z,9.4
2023-05-17T01:50:54.943Z,9.3
2023-05-17T01:56:29.657Z,9.5
2023-05-17T02:02:03.424Z,9.5
2023-05-17T02:07:18.519Z,9.4
2023-05-17T02:12:51.830Z,9.5
2023-05-17T02:18:34.407Z,9.5
2023-05-17T02:24:15.346Z,9.5
2023-05-17T02:29:42.766Z,9.5
2023-05-17T02:35:19.713Z,9.6
2023-05-17T02:41:01.771Z,9.6
2023-05-17T02:46:25.050Z,9.6
2023-05-17T02:52:05.562Z,9.5
2023-05-17T02:57:23.440Z,9.4
2023-05-17T03:08:31.747Z,9.5
2023-05-17T03:14:21.086Z,9.3
2023-05-17T03:19:41.893Z,9.3
2023-05-17T03:25:25.082Z,9.5
2023-05-17T03:31:12.628Z,9.4
2023-05-17T03:36:31.244Z,9.4
2023-05-17T03:42:00.835Z,9.4
2023-05-17T03:47:37.966Z,9.4
2023-05-17T03:58:36.469Z,9.4
2023-05-17T04:04:35.943Z,9.4
2023-05-17T04:09:58.387Z,9.4
2023-05-17T04:15:19.852Z,9.2
2023-05-17T04:20:58.588Z,9.3
2023-05-17T04:26:33.782Z,9.2
2023-05-17T04:32:06.311Z,9.4
2023-05-17T04:37:46.502Z,9.3
2023-05-17T04:43:20.867Z,9.4
2023-05-17T04:49:00.266Z,9.3
2023-05-17T04:54:37.678Z,9.2
2023-05-17T05:00:17.868Z,9.3
2023-05-17T05:05:39.041Z,9.2
2023-05-17T05:11:14.181Z,9.1
2023-05-17T05:16:54.660Z,9.2
2023-05-17T05:22:27.005Z,9.2
2023-05-17T05:33:40.986Z,9.1
2023-05-17T05:39:17.429Z,9.1
2023-05-17T05:44:42.525Z,9.1
2023-05-17T05:50:04.358Z,9.2
2023-05-17T05:55:49.045Z,9.2
2023-05-17T06:01:23.786Z,9.2
2023-05-17T06:12:30.511Z,9.2
2023-05-17T06:17:50.654Z,9.1
2023-05-17T06:23:39.474Z,9.2
2023-05-17T06:29:24.356Z,9.2
2023-05-17T06:45:48.884Z,9.4
2023-05-17T06:51:27.744Z,9.7
2023-05-17T06:56:50.356Z,9.9
2023-05-17T07:08:10.577Z,10.7
2023-05-17T07:13:59.702Z,10.7
2023-05-17T07:19:11.417Z,10.2
2023-05-17T07:24:51.890Z,10.3
2023-05-17T07:30:43.564Z,10.2
2023-05-17T07:35:57.009Z,10.1
2023-05-17T07:41:55.453Z,10.2
2023-05-17T07:58:14.264Z,10.4
2023-05-17T08:04:00.328Z,10.7
2023-05-17T08:09:44.717Z,11
2023-05-17T08:15:10.915Z,10.8
2023-05-17T08:20:50.133Z,10.9
2023-05-17T08:31:54.675Z,11.3
2023-05-17T08:37:26.651Z,10.9
2023-05-17T08:43:00.970Z,11.1
2023-05-17T08:48:50.055Z,10.9
2023-05-17T08:54:16.606Z,10.8
2023-05-17T09:05:27.438Z,10.7
2023-05-17T09:11:15.088Z,11.1
2023-05-17T09:16:35.752Z,11.3
2023-05-17T09:22:07.095Z,11.5
2023-05-17T10:12:28.120Z,12.6
2023-05-17T10:29:29.299Z,13
2023-05-17T13:28:53.473Z,13.7
2023-05-17T13:40:22.909Z,13.4
2023-05-17T13:45:31.602Z,13.8
2023-05-17T13:51:30.626Z,13.8
2023-05-17T13:56:48.244Z,13.6
2023-05-17T14:02:27.079Z,13.4
2023-05-17T14:08:01.098Z,13.5
2023-05-17T14:13:27.383Z,13.4
2023-05-17T14:24:41.025Z,13.3
2023-05-17T14:30:24.537Z,14.3
2023-05-17T14:35:50.775Z,13.7
2023-05-17T14:41:28.054Z,13.4
2023-05-17T14:47:24.320Z,13.4
2023-05-17T14:58:22.675Z,13.2
2023-05-17T15:04:12.589Z,13.2
2023-05-17T15:09:20.474Z,13.2
2023-05-17T15:15:11.041Z,13.2
2023-05-17T15:20:42.269Z,13.3
2023-05-17T15:26:15.713Z,13.2
2023-05-17T15:32:00.589Z,13.2
2023-05-17T15:37:37.500Z,13.1
2023-05-17T15:48:48.973Z,13.2
2023-05-17T15:54:08.457Z,13.3
2023-05-17T16:05:17.413Z,13.3
2023-05-17T16:11:15.666Z,13.4
2023-05-17T16:22:03.277Z,13.2
2023-05-17T16:33:22.613Z,13.2
2023-05-17T16:38:45.661Z,13.1
2023-05-17T16:50:09.658Z,12.9
2023-05-17T16:55:44.311Z,12.8
2023-05-17T17:01:24.753Z,12.8
2023-05-17T17:12:24.889Z,12.9
2023-05-17T17:17:54.826Z,12.8
2023-05-17T17:23:29.932Z,12.7
2023-05-17T17:29:17.640Z,12.6
2023-05-17T17:34:47.873Z,12.6
2023-05-17T17:40:13.146Z,12.5
2023-05-17T17:46:05.071Z,12.5
2023-05-17T17:51:26.664Z,12.4
2023-05-17T17:57:16.382Z,12.6
2023-05-17T18:02:25.666Z,12.4
2023-05-17T18:13:40.674Z,12.2
2023-05-17T18:19:19.465Z,12.2
2023-05-17T18:24:58.202Z,12
2023-05-17T18:30:36.149Z,11.8
2023-05-17T18:35:59.633Z,11.8
2023-05-17T18:41:44.331Z,11.6
2023-05-17T18:47:01.845Z,11.4
2023-05-17T18:52:44.432Z,11.2
2023-05-17T18:58:23.188Z,11.5
2023-05-17T19:03:56.462Z,11.8
2023-05-17T19:15:06.730Z,11.7
2023-05-17T19:20:29.075Z,11.8
2023-05-17T19:26:05.542Z,11.7
2023-05-17T19:31:41.721Z,12
2023-05-17T19:37:06.936Z,11.6
2023-05-17T19:42:57.059Z,11.5
2023-05-17T19:48:42.513Z,11.7
2023-05-17T19:54:16.067Z,11.5
2023-05-17T19:59:27.736Z,11.3
2023-05-17T20:05:06.906Z,11.5
2023-05-17T20:10:36.554Z,11.1
2023-05-17T20:16:09.352Z,10.9
2023-05-17T20:22:05.668Z,10.7
2023-05-17T20:27:40.189Z,10.7
2023-05-17T20:32:54.461Z,10.5
2023-05-17T20:44:12.672Z,11
2023-05-17T20:49:48.351Z,10.9
2023-05-17T20:55:10.732Z,11.2
2023-05-17T21:01:01.733Z,11
2023-05-17T21:06:36.608Z,10.9
2023-05-17T21:11:48.262Z,10.7
2023-05-17T21:23:14.659Z,10.9
2023-05-17T21:28:50.173Z,10.8
2023-05-17T21:34:17.158Z,10.8
2023-05-17T21:56:37.077Z,10.1
